Time;durP1;ratioP1;P1;durP2;ratioP2;P2;SDS_P1;SDS_P2;PMS_P1;PMS_P2;Temp;Humidity;BMP_temperature;BMP_pressure;BME280_temperature;BME280_humidity;BME280_pressure;Samples;Min_cycle;Max_cycle;Signal;HPM_P1;HPM_P2
2023/04/11 00:00:06;;;;;;;3.27;1.27;;;;;;;14.34;52.69;100554.84;4992367;28;96977;-51
2023/04/11 00:02:33;;;;;;;1.80;1.70;;;;;;;14.28;52.73;100551.38;4993023;28;96710;-52
2023/04/11 00:04:59;;;;;;;2.27;2.07;;;;;;;14.26;52.87;100537.31;4993919;28;96674;-50
2023/04/11 00:07:25;;;;;;;1.90;1.53;;;;;;;14.26;52.97;100532.50;4993004;28;97066;-50
2023/04/11 00:09:50;;;;;;;2.17;1.80;;;;;;;14.25;53.02;100531.03;4995326;28;97054;-52
2023/04/11 00:12:15;;;;;;;2.17;2.03;;;;;;;14.20;53.12;100528.31;4993070;28;96769;-50
2023/04/11 00:14:44;;;;;;;1.30;1.20;;;;;;;14.19;53.13;100507.44;4993917;28;97161;-52
2023/04/11 00:17:13;;;;;;;1.57;1.47;;;;;;;14.23;53.18;100478.22;4994126;28;97438;-51
2023/04/11 00:19:38;;;;;;;3.17;1.40;;;;;;;14.16;53.40;100467.75;4993785;28;97687;-51
2023/04/11 00:22:04;;;;;;;1.70;1.60;;;;;;;14.17;53.27;100440.81;4993484;28;96777;-51
2023/04/11 00:24:30;;;;;;;1.57;1.47;;;;;;;14.14;53.31;100416.97;4995490;28;97429;-50
2023/04/11 00:26:58;;;;;;;1.40;1.30;;;;;;;14.08;53.42;100399.69;4994675;28;97100;-52
2023/04/11 00:29:23;;;;;;;3.77;1.30;;;;;;;14.09;53.44;100423.31;4993381;28;96875;-50
2023/04/11 00:31:48;;;;;;;1.40;1.30;;;;;;;14.08;53.69;100425.34;4995411;28;97181;-51
2023/04/11 00:34:14;;;;;;;2.47;1.50;;;;;;;14.04;53.62;100413.06;4995693;28;97250;-52
2023/04/11 00:36:40;;;;;;;1.30;1.20;;;;;;;14.05;53.63;100429.13;4993490;28;97392;-52
2023/04/11 00:39:07;;;;;;;1.20;1.20;;;;;;;14.07;53.67;100423.06;4993737;28;97234;-51
2023/04/11 00:41:33;;;;;;;1.70;1.30;;;;;;;14.06;53.72;100435.44;4993682;28;97056;-52
2023/04/11 00:43:58;;;;;;;1.27;1.17;;;;;;;14.06;53.64;100446.50;4995761;28;96829;-52
2023/04/11 00:46:24;;;;;;;0.93;0.93;;;;;;;14.04;53.74;100460.81;4992878;28;97091;-52
2023/04/11 00:48:50;;;;;;;1.10;1.00;;;;;;;14.00;53.93;100462.41;4992607;28;97298;-52
2023/04/11 00:51:17;;;;;;;1.20;1.10;;;;;;;14.01;53.87;100461.88;4992514;28;97066;-50
2023/04/11 00:53:44;;;;;;;1.07;1.07;;;;;;;13.97;54.00;100461.44;4992280;28;97293;-52
2023/04/11 00:56:10;;;;;;;0.90;0.90;;;;;;;13.97;54.23;100475.25;4991894;28;96933;-51
2023/04/11 00:58:37;;;;;;;1.47;1.40;;;;;;;13.95;54.29;100480.56;4994488;28;97219;-50
2023/04/11 01:01:08;;;;;;;1.20;1.20;;;;;;;13.95;54.27;100483.34;4995133;28;97112;-53
2023/04/11 01:03:40;;;;;;;1.20;1.10;;;;;;;13.94;54.21;100487.34;4992960;28;97382;-51
2023/04/11 01:06:08;;;;;;;0.80;0.80;;;;;;;13.93;54.35;100491.41;4991791;28;97164;-52
2023/04/11 01:08:36;;;;;;;1.50;1.40;;;;;;;13.88;54.38;100488.69;4993996;28;97326;-50
2023/04/11 01:11:02;;;;;;;1.27;1.10;;;;;;;13.85;54.28;100492.47;4994514;28;97329;-52
2023/04/11 01:13:30;;;;;;;1.87;1.00;;;;;;;13.81;54.66;100503.06;4994857;28;97200;-51
2023/04/11 01:15:55;;;;;;;1.00;0.90;;;;;;;13.71;54.69;100488.09;4992118;28;97412;-51
2023/04/11 01:18:21;;;;;;;1.50;1.40;;;;;;;13.72;54.55;100484.81;4995917;28;97051;-53
2023/04/11 01:20:46;;;;;;;1.10;1.10;;;;;;;13.68;54.75;100489.88;4991367;28;97206;-51
2023/04/11 01:23:13;;;;;;;1.23;1.13;;;;;;;13.68;54.79;100489.13;4993092;28;97321;-51
2023/04/11 01:25:39;;;;;;;6.40;1.03;;;;;;;13.63;54.88;100487.91;4995810;28;97519;-52
2023/04/11 01:28:05;;;;;;;1.10;0.90;;;;;;;13.61;54.72;100495.25;4995138;28;97106;-52
2023/04/11 01:30:30;;;;;;;0.83;0.83;;;;;;;13.61;54.85;100498.00;4991144;28;96961;-52
2023/04/11 01:32:55;;;;;;;1.47;1.20;;;;;;;13.59;54.95;100497.75;4993880;28;96923;-52
2023/04/11 01:35:21;;;;;;;1.80;1.03;;;;;;;13.54;55.13;100496.56;4995722;28;104718;-52
2023/04/11 01:37:46;;;;;;;0.80;0.80;;;;;;;13.46;55.29;100490.09;4996255;28;97460;-51
2023/04/11 01:40:17;;;;;;;0.87;0.80;;;;;;;13.47;55.41;100484.06;4995663;28;97090;-52
2023/04/11 01:42:44;;;;;;;1.40;1.30;;;;;;;13.47;55.28;100480.53;4996256;28;96855;-52
2023/04/11 01:45:11;;;;;;;1.33;1.03;;;;;;;13.48;55.34;100480.00;4995662;28;96874;-52
2023/04/11 01:47:37;;;;;;;1.20;1.03;;;;;;;13.47;55.19;100473.00;4994896;28;97058;-52
2023/04/11 01:50:03;;;;;;;1.10;0.97;;;;;;;13.49;55.13;100464.94;4996521;28;97094;-52
2023/04/11 01:52:28;;;;;;;1.67;0.83;;;;;;;13.45;55.27;100460.97;4994552;28;97024;-52
2023/04/11 01:54:54;;;;;;;1.63;0.87;;;;;;;13.44;55.17;100459.44;4997940;28;96640;-51
2023/04/11 01:57:19;;;;;;;2.00;1.30;;;;;;;13.42;55.15;100457.22;4998368;28;96730;-52
2023/04/11 01:59:44;;;;;;;2.70;1.27;;;;;;;13.40;55.22;100459.75;4995760;28;97125;-51
2023/04/11 02:02:10;;;;;;;0.97;0.87;;;;;;;13.35;55.17;100457.03;4996988;28;99192;-51
2023/04/11 02:04:35;;;;;;;0.90;0.90;;;;;;;13.32;55.33;100458.06;4994881;28;99022;-52
2023/04/11 02:07:00;;;;;;;0.70;0.70;;;;;;;13.29;55.45;100459.84;4998020;28;97256;-52
2023/04/11 02:09:26;;;;;;;0.70;0.60;;;;;;;13.25;55.44;100448.34;4997786;28;96749;-52
2023/04/11 02:11:51;;;;;;;0.60;0.50;;;;;;;13.19;55.37;100436.56;4994896;28;96745;-51
2023/04/11 02:14:19;;;;;;;1.13;1.03;;;;;;;13.22;55.34;100432.78;4996095;28;97416;-49
2023/04/11 02:16:55;;;;;;;0.70;0.70;;;;;;;13.19;56.36;100453.13;4997319;28;98360;-52
2023/04/11 02:19:22;;;;;;;0.80;0.60;;;;;;;13.14;55.52;100453.94;4996056;28;97233;-52
2023/04/11 02:21:48;;;;;;;0.70;0.70;;;;;;;13.14;55.37;100436.63;4993848;28;97091;-51
2023/04/11 02:24:13;;;;;;;0.73;0.73;;;;;;;13.13;55.54;100444.16;4996068;28;97697;-51
2023/04/11 02:26:41;;;;;;;0.80;0.73;;;;;;;13.10;55.39;100427.88;4996292;28;96722;-51
2023/04/11 02:29:06;;;;;;;0.60;0.60;;;;;;;13.10;55.74;100430.63;4995191;28;99121;-50
2023/04/11 02:31:32;;;;;;;0.90;0.60;;;;;;;13.12;55.46;100431.63;4993679;28;96808;-51
2023/04/11 02:33:57;;;;;;;0.60;0.50;;;;;;;13.15;55.58;100438.13;4995919;28;101075;-51
2023/04/11 02:36:22;;;;;;;1.83;0.50;;;;;;;13.15;55.46;100416.75;4995299;28;104515;-52
2023/04/11 02:38:48;;;;;;;0.70;0.70;;;;;;;13.15;55.38;100419.53;4993809;28;97158;-51
2023/04/11 02:41:13;;;;;;;0.83;0.50;;;;;;;13.12;55.46;100420.56;4995925;28;96804;-50
2023/04/11 02:43:38;;;;;;;0.80;0.80;;;;;;;13.08;55.63;100419.34;4998489;28;96810;-51
2023/04/11 02:46:05;;;;;;;1.33;0.70;;;;;;;13.03;55.56;100420.88;4995663;28;97259;-52
2023/04/11 02:48:30;;;;;;;1.00;0.73;;;;;;;12.98;55.84;100424.41;4996304;28;96855;-52
2023/04/11 02:50:56;;;;;;;2.20;0.60;;;;;;;12.99;55.69;100414.88;4996618;28;97312;-52
2023/04/11 02:53:21;;;;;;;4.50;0.80;;;;;;;12.99;55.71;100425.91;4994703;28;107866;-52
2023/04/11 02:55:46;;;;;;;1.30;0.83;;;;;;;12.99;55.68;100436.97;4998081;28;97157;-51
2023/04/11 02:58:16;;;;;;;1.00;0.50;;;;;;;12.95;55.70;100446.78;4995128;28;97011;-52
2023/04/11 03:00:42;;;;;;;0.60;0.60;;;;;;;12.93;55.97;100508.03;4992429;28;97185;-51
2023/04/11 03:03:07;;;;;;;0.90;0.80;;;;;;;12.82;55.73;100508.84;4996443;28;98018;-52
2023/04/11 03:05:33;;;;;;;0.70;0.50;;;;;;;12.59;55.38;100496.44;4995847;28;97759;-51
2023/04/11 03:07:58;;;;;;;5.03;0.87;;;;;;;12.40;55.31;100497.53;4995624;28;100850;-52
2023/04/11 03:10:23;;;;;;;1.93;0.67;;;;;;;12.25;55.48;100502.63;4995626;28;97269;-51
2023/04/11 03:12:49;;;;;;;0.60;0.50;;;;;;;12.10;55.72;100505.66;4994144;28;96852;-52
2023/04/11 03:15:14;;;;;;;0.50;0.50;;;;;;;12.07;55.82;100503.94;4995674;28;97569;-53
2023/04/11 03:17:39;;;;;;;0.60;0.40;;;;;;;12.04;55.83;100502.94;4996033;28;97116;-51
2023/04/11 03:20:06;;;;;;;1.23;0.47;;;;;;;11.98;55.69;100524.25;4993578;28;97271;-53
2023/04/11 03:22:31;;;;;;;1.50;0.40;;;;;;;11.93;55.86;100502.97;4992617;28;97674;-53
2023/04/11 03:24:56;;;;;;;4.03;0.77;;;;;;;11.90;55.76;100506.72;4995906;28;99104;-52
2023/04/11 03:27:22;;;;;;;1.53;0.60;;;;;;;11.90;55.91;100503.97;4996027;28;96734;-52
2023/04/11 03:29:47;;;;;;;1.33;0.60;;;;;;;11.86;56.02;100497.94;4995733;28;97308;-53
2023/04/11 03:32:12;;;;;;;0.80;0.50;;;;;;;11.84;55.85;100478.41;4996349;28;97888;-51
2023/04/11 03:34:38;;;;;;;1.03;0.67;;;;;;;11.81;55.86;100475.94;4993579;28;104076;-52
2023/04/11 03:37:03;;;;;;;1.00;0.50;;;;;;;11.76;56.03;100463.66;4995281;28;96637;-52
2023/04/11 03:39:29;;;;;;;1.00;0.87;;;;;;;11.71;55.98;100469.94;4996368;28;96615;-52
2023/04/11 03:41:54;;;;;;;1.27;0.70;;;;;;;11.71;55.91;100477.44;4996268;28;97045;-53
2023/04/11 03:44:19;;;;;;;3.70;0.70;;;;;;;11.68;55.94;100476.47;4989980;28;96996;-53
2023/04/11 03:46:45;;;;;;;0.90;0.60;;;;;;;11.65;55.99;100462.91;4991259;28;100388;-51
2023/04/11 03:49:10;;;;;;;1.13;0.53;;;;;;;11.59;56.04;100440.88;4997303;28;96698;-52
2023/04/11 03:51:36;;;;;;;1.53;0.80;;;;;;;11.54;56.06;100449.13;4990740;28;97757;-52
2023/04/11 03:54:01;;;;;;;2.30;0.60;;;;;;;11.53;56.30;100450.41;4993045;28;96658;-52
2023/04/11 03:56:27;;;;;;;3.37;0.70;;;;;;;11.56;56.27;100450.13;4994593;28;97100;-53
2023/04/11 03:58:52;;;;;;;2.20;0.70;;;;;;;11.57;56.51;100451.66;4995076;28;97257;-53
2023/04/11 04:01:17;;;;;;;2.10;0.70;;;;;;;11.57;56.14;100448.13;4992291;28;115363;-52
2023/04/11 04:03:43;;;;;;;3.03;0.80;;;;;;;11.55;56.28;100451.41;4992082;28;105721;-51
2023/04/11 04:06:08;;;;;;;2.10;0.60;;;;;;;11.51;56.14;100450.88;4993545;28;103744;-52
2023/04/11 04:08:34;;;;;;;0.70;0.70;;;;;;;11.51;56.16;100456.41;4997499;28;97072;-51
2023/04/11 04:10:59;;;;;;;1.63;0.57;;;;;;;11.48;56.20;100446.41;4996243;28;97187;-52
2023/04/11 04:13:26;;;;;;;1.00;0.40;;;;;;;11.44;55.96;100443.16;4991570;28;111230;-52
2023/04/11 04:15:51;;;;;;;2.70;0.60;;;;;;;11.38;56.13;100445.16;4996618;28;96970;-52
2023/04/11 04:18:17;;;;;;;1.53;0.50;;;;;;;11.31;56.20;100445.69;4996072;28;96802;-52
2023/04/11 04:20:42;;;;;;;1.20;0.50;;;;;;;11.25;56.06;100455.91;4989831;28;103684;-52
2023/04/11 04:23:07;;;;;;;3.03;0.50;;;;;;;11.22;56.21;100454.94;4991525;28;108963;-53
2023/04/11 04:25:33;;;;;;;1.90;0.70;;;;;;;11.16;56.31;100456.94;4994297;28;96945;-52
2023/04/11 04:27:59;;;;;;;0.90;0.60;;;;;;;11.13;56.26;100463.44;4991581;28;96779;-50
2023/04/11 04:30:27;;;;;;;3.07;0.80;;;;;;;11.08;56.30;100466.19;4993733;28;96958;-52
2023/04/11 04:32:53;;;;;;;1.00;0.43;;;;;;;11.08;56.54;100477.97;4994060;28;97228;-52
2023/04/11 04:35:19;;;;;;;0.80;0.50;;;;;;;11.09;56.38;100467.69;4991825;28;97239;-52
2023/04/11 04:37:44;;;;;;;0.60;0.50;;;;;;;11.08;56.48;100472.44;4995419;28;97486;-52
2023/04/11 04:40:12;;;;;;;2.50;0.60;;;;;;;11.07;56.38;100470.22;4993901;28;105848;-52
2023/04/11 04:42:40;;;;;;;0.90;0.50;;;;;;;11.04;56.50;100471.19;4994580;28;96689;-51
2023/04/11 04:45:07;;;;;;;3.03;0.60;;;;;;;11.00;56.49;100471.44;4993534;28;96556;-51
2023/04/11 04:47:35;;;;;;;2.17;1.13;;;;;;;10.96;56.52;100470.19;4992949;28;97143;-53
2023/04/11 04:50:01;;;;;;;1.63;0.60;;;;;;;10.93;56.56;100471.94;4994596;28;99741;-51
2023/04/11 04:52:27;;;;;;;1.53;0.57;;;;;;;10.90;56.54;100467.41;4995843;28;97378;-51
2023/04/11 04:54:57;;;;;;;0.70;0.50;;;;;;;10.86;56.68;100471.66;4993937;28;97239;-53
2023/04/11 04:57:23;;;;;;;1.23;0.53;;;;;;;10.81;56.63;100469.69;4992570;28;97094;-52
2023/04/11 04:59:49;;;;;;;1.67;0.63;;;;;;;10.79;56.60;100466.66;4993982;28;97437;-52
2023/04/11 05:02:15;;;;;;;0.70;0.60;;;;;;;10.73;56.70;100457.63;4991516;28;97733;-51
2023/04/11 05:04:41;;;;;;;1.77;0.70;;;;;;;10.71;56.69;100471.91;4994463;28;97389;-52
2023/04/11 05:07:06;;;;;;;2.50;0.70;;;;;;;10.71;56.66;100468.38;4995568;28;96991;-52
2023/04/11 05:09:32;;;;;;;0.90;0.80;;;;;;;10.72;56.76;100473.41;4994699;28;107507;-53
2023/04/11 05:11:57;;;;;;;4.93;1.13;;;;;;;10.74;56.73;100470.16;4998154;28;104605;-52
2023/04/11 05:14:22;;;;;;;0.50;0.50;;;;;;;10.74;56.81;100473.66;4996549;28;100140;-53
2023/04/11 05:16:47;;;;;;;1.10;0.50;;;;;;;10.74;56.71;100470.16;4997984;28;96812;-52
2023/04/11 05:19:13;;;;;;;1.23;0.70;;;;;;;10.75;56.71;100466.91;4998288;28;100646;-52
2023/04/11 05:21:38;;;;;;;1.40;1.00;;;;;;;10.77;56.79;100463.66;4995889;28;97086;-52
2023/04/11 05:24:04;;;;;;;1.23;0.63;;;;;;;10.72;56.64;100464.41;4998287;28;97068;-51
2023/04/11 05:26:30;;;;;;;1.20;0.80;;;;;;;10.72;56.96;100483.66;4997511;28;97308;-51
2023/04/11 05:28:56;;;;;;;0.80;0.80;;;;;;;10.72;56.78;100483.66;4999958;28;97853;-51
2023/04/11 05:31:21;;;;;;;3.03;0.83;;;;;;;10.71;56.87;100473.91;4998273;28;99914;-51
2023/04/11 05:33:46;;;;;;;1.50;0.93;;;;;;;10.68;57.01;100475.63;5001843;28;97085;-52
2023/04/11 05:36:13;;;;;;;4.80;0.83;;;;;;;10.71;57.24;100482.16;4998142;28;97551;-52
2023/04/11 05:38:42;;;;;;;1.43;1.00;;;;;;;10.73;57.66;100485.16;4996142;28;97312;-51
2023/04/11 05:41:09;;;;;;;3.73;1.00;;;;;;;10.82;57.38;100484.94;4996385;28;96866;-51
2023/04/11 05:43:34;;;;;;;3.07;1.00;;;;;;;10.88;57.44;100488.44;4995510;28;97366;-51
2023/04/11 05:46:00;;;;;;;1.43;0.67;;;;;;;10.94;57.53;100487.19;4998913;28;97570;-52
2023/04/11 05:48:25;;;;;;;1.20;1.10;;;;;;;11.01;57.44;100485.94;4995921;28;104383;-52
2023/04/11 05:50:50;;;;;;;3.07;1.40;;;;;;;11.08;57.35;100477.19;4998258;28;97522;-52
2023/04/11 05:53:16;;;;;;;3.97;1.20;;;;;;;11.11;57.49;100481.72;4997780;28;98591;-51
2023/04/11 05:55:41;;;;;;;4.97;1.27;;;;;;;11.13;57.57;100484.72;4998702;28;97044;-51
2023/04/11 05:58:08;;;;;;;5.80;1.13;;;;;;;11.16;57.71;100483.72;4999054;28;97427;-52
2023/04/11 06:00:33;;;;;;;4.03;1.20;;;;;;;11.16;57.75;100486.47;4998899;28;97393;-52
2023/04/11 06:03:00;;;;;;;2.47;1.07;;;;;;;11.16;57.88;100492.72;4994296;28;97123;-51
2023/04/11 06:05:30;;;;;;;3.27;1.03;;;;;;;11.23;57.80;100488.72;4996583;28;97232;-51
2023/04/11 06:07:56;;;;;;;3.07;1.27;;;;;;;11.23;57.68;100483.22;4993986;28;97036;-51
2023/04/11 06:10:22;;;;;;;2.17;1.20;;;;;;;11.28;57.96;100496.25;4997737;28;98771;-51
2023/04/11 06:12:47;;;;;;;7.00;1.47;;;;;;;11.29;58.00;100504.00;4996315;28;104732;-51
2023/04/11 06:15:12;;;;;;;3.63;1.27;;;;;;;11.34;58.19;100496.97;4998404;28;97039;-52
2023/04/11 06:17:38;;;;;;;6.23;1.43;;;;;;;11.40;58.15;100499.75;4994874;28;97253;-52
2023/04/11 06:20:05;;;;;;;1.47;1.03;;;;;;;11.49;58.19;100511.25;4995423;28;101022;-51
2023/04/11 06:22:30;;;;;;;3.00;1.50;;;;;;;11.61;58.04;100507.25;4996252;28;97088;-52
2023/04/11 06:24:56;;;;;;;4.10;1.10;;;;;;;11.71;57.87;100511.25;4996800;28;97450;-54
2023/04/11 06:27:21;;;;;;;3.20;1.33;;;;;;;11.74;57.57;100526.03;4999841;28;97171;-51
2023/04/11 06:29:47;;;;;;;3.70;1.13;;;;;;;11.73;57.63;100539.06;4994700;28;97576;-50
2023/04/11 06:32:12;;;;;;;5.17;1.13;;;;;;;11.71;57.52;100529.78;4997220;28;96998;-52
2023/04/11 06:34:38;;;;;;;2.20;1.20;;;;;;;11.67;57.74;100521.78;4995767;28;96925;-50
2023/04/11 06:37:05;;;;;;;2.50;0.90;;;;;;;11.67;57.89;100538.31;4996061;28;97607;-50
2023/04/11 06:39:31;;;;;;;1.23;1.03;;;;;;;11.66;57.80;100525.03;4996885;28;97651;-50
2023/04/11 06:41:56;;;;;;;2.20;1.00;;;;;;;11.62;57.76;100511.50;4996248;28;97217;-52
2023/04/11 06:44:22;;;;;;;2.57;0.93;;;;;;;11.64;57.97;100520.00;4994366;28;96964;-49
2023/04/11 06:46:47;;;;;;;1.83;0.80;;;;;;;11.62;57.88;100517.00;4995785;28;107001;-51
2023/04/11 06:49:12;;;;;;;1.70;0.80;;;;;;;11.63;57.91;100526.78;4995530;28;97584;-50
2023/04/11 06:51:38;;;;;;;2.17;0.90;;;;;;;11.65;57.97;100518.75;4992469;28;97039;-50
2023/04/11 06:54:05;;;;;;;4.00;0.80;;;;;;;11.72;58.21;100523.81;4997382;28;96755;-52
2023/04/11 06:56:30;;;;;;;1.57;0.73;;;;;;;11.75;58.13;100528.28;4993419;28;97938;-49
2023/04/11 06:58:55;;;;;;;2.97;0.73;;;;;;;11.75;58.15;100525.53;4993831;28;97642;-50
2023/04/11 07:01:24;;;;;;;3.10;1.20;;;;;;;11.76;58.04;100540.81;4995990;28;97249;-52
2023/04/11 07:03:51;;;;;;;2.87;1.30;;;;;;;11.78;58.08;100538.31;4993587;28;97131;-50
2023/04/11 07:06:18;;;;;;;2.60;1.10;;;;;;;11.81;58.15;100537.31;4995498;28;97376;-50
2023/04/11 07:08:43;;;;;;;3.90;1.10;;;;;;;11.96;58.02;100546.06;4995538;28;97299;-50
2023/04/11 07:11:08;;;;;;;2.07;0.90;;;;;;;12.03;57.92;100545.53;4993485;28;97563;-50
2023/04/11 07:13:34;;;;;;;2.77;0.90;;;;;;;12.10;57.86;100547.03;4994351;28;97152;-50
2023/04/11 07:15:59;;;;;;;2.10;0.83;;;;;;;12.16;57.85;100547.03;4992837;28;96843;-50
2023/04/11 07:18:27;;;;;;;3.03;1.33;;;;;;;12.25;57.68;100552.28;4995615;28;97878;-50
2023/04/11 07:20:53;;;;;;;2.90;0.90;;;;;;;12.22;57.83;100542.22;4992807;28;96914;-51
2023/04/11 07:23:18;;;;;;;2.70;0.83;;;;;;;12.28;57.89;100545.72;4994292;28;96803;-51
2023/04/11 07:25:43;;;;;;;1.37;0.90;;;;;;;12.36;57.85;100543.97;4993039;28;104903;-51
2023/04/11 07:28:10;;;;;;;1.63;1.10;;;;;;;12.42;57.63;100547.44;4997086;28;96960;-50
2023/04/11 07:30:36;;;;;;;1.30;0.80;;;;;;;12.50;57.78;100548.41;4995491;28;97100;-51
2023/04/11 07:33:02;;;;;;;1.53;1.00;;;;;;;12.61;57.45;100542.84;4993341;28;97059;-54
2023/04/11 07:35:28;;;;;;;0.97;0.80;;;;;;;12.67;57.51;100555.34;4997556;28;97273;-52
2023/04/11 07:37:53;;;;;;;1.90;1.07;;;;;;;12.74;57.44;100557.59;4997194;28;97406;-52
2023/04/11 07:40:19;;;;;;;6.53;0.87;;;;;;;12.71;57.55;100549.59;4994664;28;98017;-50
2023/04/11 07:42:45;;;;;;;3.10;1.60;;;;;;;12.72;57.44;100556.59;4995601;28;97335;-50
2023/04/11 07:45:10;;;;;;;2.07;0.80;;;;;;;12.78;57.46;100562.84;4998066;28;97037;-50
2023/04/11 07:47:36;;;;;;;2.00;0.90;;;;;;;12.75;57.54;100575.63;4994417;28;97381;-52
2023/04/11 07:50:02;;;;;;;1.37;1.10;;;;;;;12.68;57.26;100569.91;4993813;28;97159;-53
2023/04/11 07:52:27;;;;;;;4.83;1.30;;;;;;;12.61;57.23;100582.25;4995617;28;97018;-51
2023/04/11 07:54:53;;;;;;;1.40;1.30;;;;;;;12.56;57.56;100577.47;4994802;28;97196;-49
2023/04/11 07:57:18;;;;;;;2.40;1.13;;;;;;;12.52;57.57;100573.47;4995179;28;97169;-50
2023/04/11 07:59:43;;;;;;;6.07;1.00;;;;;;;12.61;57.72;100584.25;4995553;28;97120;-52
2023/04/11 08:02:09;;;;;;;2.60;1.17;;;;;;;12.69;57.68;100585.19;4996697;28;98053;-51
2023/04/11 08:04:35;;;;;;;3.53;1.23;;;;;;;12.80;57.39;100574.88;4996551;28;98417;-51
2023/04/11 08:07:02;;;;;;;2.33;1.00;;;;;;;12.91;57.31;100573.34;4996525;28;97144;-52
2023/04/11 08:09:27;;;;;;;2.20;1.00;;;;;;;13.01;57.41;100583.56;4995530;28;96653;-51
2023/04/11 08:11:53;;;;;;;1.97;1.20;;;;;;;13.12;57.15;100583.53;4995602;28;97229;-51
2023/04/11 08:14:18;;;;;;;1.60;1.50;;;;;;;13.23;56.94;100577.94;4994501;28;97284;-51
2023/04/11 08:16:44;;;;;;;2.53;1.47;;;;;;;13.32;56.95;100588.66;4996860;28;97165;-51
2023/04/11 08:19:10;;;;;;;2.57;1.23;;;;;;;13.43;56.86;100582.31;4995966;28;97337;-51
2023/04/11 08:21:36;;;;;;;3.27;1.20;;;;;;;13.45;56.62;100585.31;4996173;28;96572;-50
2023/04/11 08:24:01;;;;;;;2.60;1.20;;;;;;;13.53;56.72;100595.31;4995499;28;96631;-53
2023/04/11 08:26:27;;;;;;;1.90;1.50;;;;;;;13.54;56.37;100598.84;4995567;28;97241;-51
2023/04/11 08:28:52;;;;;;;4.30;1.67;;;;;;;13.53;56.54;100592.53;4994836;28;97114;-50
2023/04/11 08:31:18;;;;;;;4.73;1.37;;;;;;;13.63;56.41;100575.66;4995886;28;97145;-50
2023/04/11 08:33:43;;;;;;;1.33;1.10;;;;;;;13.59;56.18;100588.97;4995941;28;97319;-51
2023/04/11 08:36:09;;;;;;;1.83;1.10;;;;;;;13.47;55.97;100597.38;4994818;28;97148;-51
2023/04/11 08:38:35;;;;;;;1.37;1.00;;;;;;;13.45;56.27;100597.09;4998705;28;97000;-49
2023/04/11 08:41:01;;;;;;;4.03;1.17;;;;;;;13.47;56.40;100600.13;4993929;28;97056;-50
2023/04/11 08:43:26;;;;;;;3.73;1.10;;;;;;;13.50;56.56;100604.63;4997708;28;97381;-54
2023/04/11 08:45:52;;;;;;;1.07;0.97;;;;;;;13.57;56.32;100614.38;4997120;28;97063;-50
2023/04/11 08:48:20;;;;;;;3.33;1.47;;;;;;;13.70;56.34;100608.25;4995656;28;97138;-50
2023/04/11 08:50:46;;;;;;;3.40;1.53;;;;;;;13.93;56.11;100601.28;4995751;28;97044;-50
2023/04/11 08:53:13;;;;;;;3.43;1.23;;;;;;;14.13;55.81;100598.06;4994324;28;97141;-49
2023/04/11 08:55:48;;;;;;;2.37;1.20;;;;;;;14.30;55.75;100600.69;4991974;28;99292;-50
2023/04/11 08:58:13;;;;;;;1.63;0.80;;;;;;;14.42;55.32;100608.34;4993591;28;96650;-52
2023/04/11 09:00:39;;;;;;;1.63;0.90;;;;;;;14.67;55.24;100606.31;4994802;28;97626;-51
2023/04/11 09:03:06;;;;;;;1.13;0.97;;;;;;;14.85;54.92;100608.38;4993422;28;97682;-51
2023/04/11 09:05:37;;;;;;;1.47;0.80;;;;;;;15.09;54.64;100608.31;4997292;28;97071;-50
2023/04/11 09:08:05;;;;;;;2.97;0.80;;;;;;;15.43;54.24;100614.09;4992637;28;97398;-53
2023/04/11 09:10:31;;;;;;;2.80;1.10;;;;;;;15.61;53.94;100610.59;4993602;28;96940;-49
2023/04/11 09:12:57;;;;;;;3.83;0.83;;;;;;;15.67;53.41;100614.78;4993630;28;97243;-53
2023/04/11 09:15:27;;;;;;;1.50;1.00;;;;;;;15.75;52.68;100628.75;4990970;28;96947;-51
2023/04/11 09:17:53;;;;;;;2.40;0.80;;;;;;;15.60;53.07;100614.63;4996272;28;97267;-50
2023/04/11 09:20:20;;;;;;;1.43;0.80;;;;;;;15.60;53.12;100615.38;4994698;28;97076;-51
2023/04/11 09:22:48;;;;;;;1.37;0.70;;;;;;;15.54;52.88;100616.75;4996722;28;97488;-50
2023/04/11 09:25:13;;;;;;;1.10;0.80;;;;;;;15.38;53.04;100623.25;4995901;28;97178;-51
2023/04/11 09:27:39;;;;;;;2.23;0.80;;;;;;;15.18;52.99;100623.81;4991660;28;97775;-53
2023/04/11 09:30:15;;;;;;;3.83;0.93;;;;;;;14.92;52.92;100613.28;4992141;28;96909;-51
2023/04/11 09:32:41;;;;;;;1.43;0.70;;;;;;;14.73;53.22;100624.34;4990713;28;97512;-50
2023/04/11 09:35:12;;;;;;;2.03;1.03;;;;;;;14.79;53.13;100624.28;4991474;28;97193;-52
2023/04/11 09:37:59;;;;;;;1.37;0.80;;;;;;;14.92;53.32;100618.84;4992197;28;97008;-50
2023/04/11 09:40:30;;;;;;;2.73;0.70;;;;;;;15.19;53.43;100622.50;4991895;28;97232;-51
2023/04/11 09:42:59;;;;;;;4.70;0.90;;;;;;;15.41;52.94;100625.72;4990361;28;96976;-50
2023/04/11 09:45:25;;;;;;;3.50;1.00;;;;;;;15.58;52.97;100622.72;4993682;28;97754;-52
2023/04/11 09:47:53;;;;;;;1.93;1.00;;;;;;;15.66;52.78;100629.19;4989620;28;96905;-51
2023/04/11 09:50:18;;;;;;;1.20;0.83;;;;;;;15.84;52.47;100630.38;4989637;28;97013;-50
2023/04/11 09:52:44;;;;;;;1.83;0.90;;;;;;;15.97;52.37;100633.94;4991627;28;98133;-51
2023/04/11 09:55:21;;;;;;;1.97;1.07;;;;;;;15.99;52.10;100648.03;4992499;28;96753;-51
2023/04/11 09:57:48;;;;;;;1.43;1.00;;;;;;;15.73;51.51;100651.47;4996829;28;97050;-51
2023/04/11 10:00:20;;;;;;;1.90;1.17;;;;;;;15.42;51.23;100652.16;4997561;28;97296;-51
2023/04/11 10:02:48;;;;;;;1.93;0.80;;;;;;;15.20;51.96;100660.06;4996375;28;97005;-54
2023/04/11 10:05:14;;;;;;;2.93;1.37;;;;;;;15.07;51.83;100657.19;4997333;28;97256;-50
2023/04/11 10:07:49;;;;;;;0.90;0.80;;;;;;;14.94;51.08;100661.38;4998374;28;97150;-52
2023/04/11 10:10:16;;;;;;;1.73;0.87;;;;;;;14.84;51.66;100651.16;4998545;28;97176;-51
2023/04/11 10:12:42;;;;;;;2.00;1.13;;;;;;;14.84;51.66;100653.94;4998292;28;97502;-50
2023/04/11 10:15:08;;;;;;;0.73;0.73;;;;;;;14.92;51.66;100655.59;4997696;28;97162;-51
2023/04/11 10:17:33;;;;;;;1.33;0.90;;;;;;;15.02;51.49;100650.44;4998341;28;97156;-51
2023/04/11 10:19:58;;;;;;;1.47;0.90;;;;;;;15.11;51.26;100660.41;4995226;28;96850;-51
2023/04/11 10:22:49;;;;;;;1.10;0.57;;;;;;;15.25;50.44;100659.97;4994750;28;97857;-50
2023/04/11 10:25:17;;;;;;;4.53;0.90;;;;;;;15.47;51.12;100656.16;4993757;28;96815;-51
2023/04/11 10:28:00;;;;;;;1.27;0.60;;;;;;;15.72;50.17;100658.31;4995173;28;97089;-51
2023/04/11 10:30:40;;;;;;;0.83;0.70;;;;;;;15.99;49.47;100661.91;4995005;28;97114;-50
2023/04/11 10:33:09;;;;;;;3.27;0.70;;;;;;;16.14;49.33;100650.31;5000550;28;98243;-51
2023/04/11 10:35:54;;;;;;;3.33;1.03;;;;;;;16.26;49.99;100657.94;5001991;28;97677;-52
2023/04/11 10:38:47;;;;;;;2.33;0.80;;;;;;;16.32;46.77;100652.25;4996273;28;97268;-53
2023/04/11 10:41:17;;;;;;;0.70;0.70;;;;;;;16.20;48.35;100653.75;4999553;28;96625;-50
2023/04/11 10:43:44;;;;;;;2.40;0.50;;;;;;;16.17;49.03;100658.34;4995658;28;98001;-51
2023/04/11 10:46:24;;;;;;;0.90;0.73;;;;;;;16.21;47.03;100650.44;4993326;28;97149;-51
2023/04/11 10:49:01;;;;;;;0.70;0.70;;;;;;;16.39;47.47;100649.63;4996210;28;96716;-53
2023/04/11 10:51:31;;;;;;;0.93;0.70;;;;;;;16.55;47.84;100660.97;4997051;28;96847;-51
2023/04/11 10:53:58;;;;;;;1.97;0.80;;;;;;;16.63;48.11;100656.28;4992324;28;97779;-53
2023/04/11 10:56:45;;;;;;;1.67;0.70;;;;;;;16.77;45.94;100666.88;4995458;28;97272;-53
2023/04/11 10:59:33;;;;;;;1.40;0.83;;;;;;;16.78;46.21;100665.56;4995057;28;96870;-51
2023/04/11 11:02:00;;;;;;;1.33;0.67;;;;;;;16.78;47.53;100671.13;4977781;28;96945;-51
2023/04/11 11:04:38;;;;;;;2.30;0.97;;;;;;;16.56;46.11;100670.78;4995205;28;97336;-52
2023/04/11 11:07:06;;;;;;;1.03;0.70;;;;;;;16.45;47.53;100668.94;4995507;28;97366;-51
2023/04/11 11:09:33;;;;;;;1.03;0.90;;;;;;;16.50;47.77;100676.47;4995980;28;97250;-51
2023/04/11 11:12:12;;;;;;;1.50;0.87;;;;;;;16.76;46.28;100681.28;4997298;28;97098;-50
2023/04/11 11:14:40;;;;;;;1.20;0.60;;;;;;;17.03;46.57;100671.66;4993170;28;97512;-51
2023/04/11 11:17:06;;;;;;;2.93;0.70;;;;;;;17.14;46.26;100688.84;4997127;28;97028;-52
2023/04/11 11:19:32;;;;;;;0.70;0.60;;;;;;;17.17;46.28;100684.97;4996594;28;96868;-51
2023/04/11 11:22:02;;;;;;;1.00;0.70;;;;;;;17.35;46.01;100688.91;4997535;28;97306;-52